createdAt,value
2018-06-09T00:02:05.149Z,16.70
2018-06-09T00:05:11.642Z,16.80
2018-06-09T00:08:17.965Z,16.60
2018-06-09T00:11:25.382Z,16.50
2018-06-09T00:14:30.065Z,16.50
2018-06-09T00:17:36.568Z,16.60
2018-06-09T00:20:46.532Z,16.80
2018-06-09T00:23:57.156Z,16.60
2018-06-09T00:27:03.705Z,16.60
2018-06-09T00:30:08.282Z,16.60
2018-06-09T00:33:12.987Z,16.50
2018-06-09T00:36:18.155Z,16.50
2018-06-09T00:39:23.839Z,16.50
2018-06-09T00:42:29.133Z,16.30
2018-06-09T00:45:35.011Z,16.20
2018-06-09T00:48:40.714Z,16.10
2018-06-09T00:51:46.758Z,16.20
2018-06-09T00:54:53.254Z,16.30
2018-06-09T00:58:00.476Z,16.20
2018-06-09T01:01:12.728Z,16.20
2018-06-09T01:04:17.935Z,16.20
2018-06-09T01:07:24.743Z,16.20
2018-06-09T01:10:50.058Z,16.20
2018-06-09T01:13:58.882Z,16.20
2018-06-09T01:17:06.449Z,16.20
2018-06-09T01:20:11.771Z,16.30
2018-06-09T01:26:29.221Z,16.30
2018-06-09T01:29:35.838Z,16.30
2018-06-09T01:32:40.831Z,16.20
2018-06-09T01:35:48.536Z,16.20
2018-06-09T01:38:52.893Z,16.00
2018-06-09T01:45:03.921Z,15.70
2018-06-09T01:48:10.769Z,15.90
2018-06-09T01:51:18.927Z,16.00
2018-06-09T01:54:25.480Z,15.80
2018-06-09T01:57:31.970Z,15.70
2018-06-09T02:00:36.661Z,15.60
2018-06-09T02:03:42.494Z,15.60
2018-06-09T02:06:48.578Z,15.60
2018-06-09T02:09:52.904Z,15.60
2018-06-09T02:12:59.054Z,15.60
2018-06-09T02:16:04.302Z,15.50
2018-06-09T02:19:09.538Z,15.50
2018-06-09T02:22:15.348Z,15.30
2018-06-09T02:25:23.097Z,15.30
2018-06-09T02:28:29.245Z,15.30
2018-06-09T02:31:36.331Z,15.20
2018-06-09T02:34:41.859Z,15.20
2018-06-09T02:37:46.228Z,15.20
2018-06-09T02:40:50.753Z,15.20
2018-06-09T02:43:56.190Z,15.10
2018-06-09T02:47:01.481Z,15.00
2018-06-09T02:50:07.488Z,15.00
2018-06-09T02:53:12.967Z,15.10
2018-06-09T02:59:22.038Z,15.30
2018-06-09T03:02:26.627Z,15.50
2018-06-09T03:05:34.275Z,15.50
2018-06-09T03:08:42.805Z,15.50
2018-06-09T03:11:48.549Z,15.10
2018-06-09T03:14:57.968Z,15.10
2018-06-09T03:18:07.175Z,15.10
2018-06-09T03:21:13.158Z,15.00
2018-06-09T03:24:18.156Z,15.30
2018-06-09T03:27:24.225Z,15.30
2018-06-09T03:30:33.771Z,15.20
2018-06-09T03:33:39.039Z,15.30
2018-06-09T03:36:44.945Z,15.20
2018-06-09T03:39:50.170Z,15.20
2018-06-09T03:42:56.034Z,15.20
2018-06-09T03:46:04.343Z,15.50
2018-06-09T03:49:09.820Z,15.70
2018-06-09T03:52:15.369Z,15.70
2018-06-09T03:55:30.794Z,15.70
2018-06-09T03:58:39.205Z,15.50
2018-06-09T04:05:21.445Z,15.80
2018-06-09T04:08:29.363Z,15.80
2018-06-09T04:11:34.484Z,15.80
2018-06-09T04:14:43.128Z,15.80
2018-06-09T04:17:47.390Z,15.80
2018-06-09T04:20:54.660Z,15.90
2018-06-09T04:23:59.843Z,15.90
2018-06-09T04:27:06.369Z,16.00
2018-06-09T04:30:10.971Z,16.20
2018-06-09T04:33:15.568Z,16.30
2018-06-09T04:36:20.905Z,16.50
2018-06-09T04:39:26.255Z,16.70
2018-06-09T04:42:32.056Z,16.80
2018-06-09T04:45:37.369Z,16.70
2018-06-09T04:48:45.184Z,16.90
2018-06-09T04:51:52.705Z,17.10
2018-06-09T04:55:00.478Z,17.30
2018-06-09T04:58:06.942Z,17.30
2018-06-09T05:01:16.882Z,17.30
2018-06-09T05:04:23.453Z,17.50
2018-06-09T05:10:36.597Z,17.90
2018-06-09T05:13:44.443Z,17.90
2018-06-09T05:16:51.974Z,17.90
2018-06-09T05:20:03.772Z,18.00
2018-06-09T05:23:09.744Z,18.20
2018-06-09T05:26:18.598Z,18.50
2018-06-09T05:29:24.353Z,18.60
2018-06-09T05:32:32.641Z,18.70
2018-06-09T05:35:37.638Z,19.10
2018-06-09T05:38:47.933Z,19.40
2018-06-09T05:41:53.596Z,19.60
2018-06-09T05:44:58.829Z,19.80
2018-06-09T05:48:04.376Z,20.10
2018-06-09T05:51:10.131Z,20.20
2018-06-09T05:54:14.762Z,19.90
2018-06-09T05:57:21.095Z,20.20
2018-06-09T06:00:26.468Z,20.20
2018-06-09T06:07:27.747Z,20.90
2018-06-09T06:10:35.275Z,22.00
2018-06-09T06:13:40.000Z,23.00
2018-06-09T06:16:47.134Z,24.10
2018-06-09T06:22:58.184Z,25.70
2018-06-09T06:26:03.313Z,25.50
2018-06-09T06:29:09.433Z,25.50
2018-06-09T06:32:15.005Z,26.30
2018-06-09T06:35:20.355Z,27.00
2018-06-09T06:38:25.124Z,28.10
2018-06-09T06:41:30.427Z,28.50
2018-06-09T06:44:36.586Z,28.40
2018-06-09T06:47:41.967Z,29.10
2018-06-09T06:50:48.132Z,29.20
2018-06-09T06:53:53.603Z,29.90
2018-06-09T06:56:58.398Z,30.30
2018-06-09T07:00:03.105Z,29.20
2018-06-09T07:03:07.973Z,31.50
2018-06-09T07:06:12.817Z,33.80
2018-06-09T07:09:20.521Z,33.10
2018-06-09T07:12:26.939Z,33.10
2018-06-09T07:15:47.592Z,33.60
2018-06-09T07:18:55.130Z,34.30
2018-06-09T07:22:05.441Z,33.90
2018-06-09T07:25:12.893Z,34.20
2018-06-09T07:31:42.110Z,33.30
2018-06-09T07:34:48.019Z,31.70
2018-06-09T07:37:53.896Z,32.40
2018-06-09T07:41:00.817Z,33.10
2018-06-09T07:44:06.144Z,31.50
2018-06-09T07:47:16.836Z,31.20
2018-06-09T07:50:21.362Z,31.90
2018-06-09T07:56:36.190Z,31.50
2018-06-09T07:59:44.712Z,30.80
2018-06-09T08:02:50.811Z,32.70
2018-06-09T08:05:56.422Z,33.00
2018-06-09T08:09:04.174Z,32.10
2018-06-09T08:12:09.853Z,31.90
2018-06-09T08:15:15.244Z,32.60
2018-06-09T08:18:19.837Z,32.50
2018-06-09T08:21:26.994Z,32.30
2018-06-09T08:24:35.709Z,33.00
2018-06-09T08:27:40.960Z,33.30
2018-06-09T08:30:47.226Z,34.10
2018-06-09T08:33:55.198Z,34.60
2018-06-09T08:36:59.778Z,35.50
2018-06-09T08:43:12.150Z,34.60
2018-06-09T08:46:17.026Z,34.70
2018-06-09T08:49:25.394Z,34.60
2018-06-09T08:52:31.307Z,34.40
2018-06-09T08:55:37.428Z,35.30
2018-06-09T08:58:42.255Z,35.50
2018-06-09T09:01:48.158Z,34.90
2018-06-09T09:04:54.333Z,34.70
2018-06-09T09:08:01.354Z,35.10
2018-06-09T09:14:12.383Z,35.60
2018-06-09T09:17:19.345Z,34.40
2018-06-09T09:20:26.065Z,34.80
2018-06-09T09:23:31.786Z,35.30
2018-06-09T09:26:39.430Z,34.80
2018-06-09T09:29:45.355Z,34.60
2018-06-09T09:32:50.073Z,34.80
2018-06-09T09:35:54.652Z,35.20
2018-06-09T09:38:59.355Z,35.00
2018-06-09T09:42:04.665Z,34.20
2018-06-09T09:45:09.902Z,33.90
2018-06-09T09:48:14.568Z,33.30
2018-06-09T09:51:20.069Z,33.30
2018-06-09T09:54:25.218Z,33.10
2018-06-09T09:57:32.622Z,33.20
2018-06-09T10:00:37.793Z,33.90
2018-06-09T10:03:46.816Z,33.90
2018-06-09T10:09:56.236Z,34.00
2018-06-09T10:13:01.354Z,33.70
2018-06-09T10:16:08.409Z,33.60
2018-06-09T10:19:14.361Z,34.60
2018-06-09T10:22:45.328Z,34.90
2018-06-09T10:25:50.528Z,33.80
2018-06-09T10:28:56.841Z,34.30
2018-06-09T10:35:10.173Z,34.60
2018-06-09T10:38:18.679Z,33.60
2018-06-09T10:41:26.624Z,33.30
2018-06-09T10:44:32.604Z,34.00
2018-06-09T10:47:39.626Z,33.40
2018-06-09T10:50:46.615Z,32.70
2018-06-09T10:53:56.536Z,32.40
2018-06-09T10:57:05.712Z,32.80
2018-06-09T11:00:15.314Z,32.60
2018-06-09T11:03:22.212Z,32.30
2018-06-09T11:06:28.235Z,32.00
2018-06-09T11:09:34.531Z,32.30
2018-06-09T11:12:44.185Z,32.60
2018-06-09T11:15:49.389Z,32.20
2018-06-09T11:18:55.396Z,31.60
2018-06-09T11:22:03.811Z,31.50
2018-06-09T11:25:14.900Z,32.10
2018-06-09T11:28:21.866Z,32.10
2018-06-09T11:31:29.375Z,31.70
2018-06-09T11:34:37.182Z,31.50
2018-06-09T11:37:43.236Z,31.50
2018-06-09T11:40:48.113Z,31.10
2018-06-09T11:43:54.142Z,30.50
2018-06-09T11:47:00.465Z,30.80
2018-06-09T11:50:09.703Z,30.50
2018-06-09T11:53:18.245Z,30.10
2018-06-09T11:56:24.321Z,29.70
2018-06-09T11:59:39.242Z,29.70
2018-06-09T12:02:43.930Z,29.60
2018-06-09T12:05:50.416Z,29.80
2018-06-09T12:08:55.044Z,29.70
2018-06-09T12:11:59.955Z,29.60
2018-06-09T12:15:05.915Z,29.10
2018-06-09T12:18:10.455Z,29.10
2018-06-09T12:21:19.257Z,29.20
2018-06-09T12:24:27.052Z,29.40
2018-06-09T12:27:34.711Z,29.20
2018-06-09T12:30:39.624Z,29.40
2018-06-09T12:33:44.127Z,29.20
2018-06-09T12:36:48.630Z,29.30
2018-06-09T12:39:53.814Z,29.40
2018-06-09T12:42:58.433Z,29.30
2018-06-09T12:46:02.906Z,29.60
2018-06-09T12:49:08.106Z,29.40
2018-06-09T12:52:19.028Z,29.60
2018-06-09T12:55:24.336Z,29.30
2018-06-09T12:58:33.641Z,29.60
2018-06-09T13:01:40.335Z,29.30
2018-06-09T13:04:50.632Z,29.30
2018-06-09T13:08:05.961Z,29.20
2018-06-09T13:11:10.731Z,29.10
2018-06-09T13:14:18.826Z,29.20
2018-06-09T13:17:33.277Z,29.30
2018-06-09T13:20:40.899Z,29.20
2018-06-09T13:23:47.651Z,29.20
2018-06-09T13:26:52.581Z,29.10
2018-06-09T13:29:59.582Z,29.10
2018-06-09T13:33:05.184Z,29.20
2018-06-09T13:36:15.665Z,29.30
2018-06-09T13:39:23.232Z,29.30
2018-06-09T13:42:33.782Z,29.50
2018-06-09T13:45:39.071Z,29.40
2018-06-09T13:48:44.901Z,29.70
2018-06-09T13:51:49.932Z,29.40
2018-06-09T13:54:54.487Z,29.30
2018-06-09T13:57:59.222Z,29.40
2018-06-09T14:01:05.642Z,29.30
2018-06-09T14:04:11.025Z,29.40
2018-06-09T14:07:15.353Z,29.60
2018-06-09T14:10:19.965Z,29.60
2018-06-09T14:13:25.923Z,29.40
2018-06-09T14:16:32.561Z,29.20
2018-06-09T14:19:37.437Z,29.20
2018-06-09T14:22:41.849Z,29.20
2018-06-09T14:25:46.255Z,29.10
2018-06-09T14:28:54.038Z,29.20
2018-06-09T14:31:58.449Z,28.80
2018-06-09T14:35:03.864Z,28.80
2018-06-09T14:38:08.375Z,28.70
2018-06-09T14:41:12.800Z,28.70
2018-06-09T14:44:17.247Z,28.60
2018-06-09T14:47:23.300Z,28.20
2018-06-09T14:50:35.132Z,27.40
2018-06-09T14:53:42.439Z,26.80
2018-06-09T14:56:47.198Z,26.70
2018-06-09T14:59:53.789Z,26.80
2018-06-09T15:03:03.410Z,27.00
2018-06-09T15:06:08.693Z,27.20
2018-06-09T15:09:13.175Z,27.30
2018-06-09T15:12:17.721Z,27.50
2018-06-09T15:15:25.549Z,27.70
2018-06-09T15:18:33.622Z,27.80
2018-06-09T15:21:38.150Z,28.00
2018-06-09T15:24:42.568Z,28.00
2018-06-09T15:27:46.932Z,27.90
2018-06-09T15:31:24.659Z,28.00
2018-06-09T15:34:33.827Z,27.90
2018-06-09T15:37:38.664Z,28.00
2018-06-09T15:40:43.087Z,28.00
2018-06-09T15:43:50.381Z,28.10
2018-06-09T15:50:09.291Z,28.20
2018-06-09T15:53:13.696Z,28.30
2018-06-09T15:56:18.526Z,28.20
2018-06-09T15:59:25.351Z,27.90
2018-06-09T16:02:36.832Z,28.00
2018-06-09T16:05:43.276Z,28.00
2018-06-09T16:08:47.689Z,27.80
2018-06-09T16:11:54.989Z,27.00
2018-06-09T16:15:01.916Z,26.90
2018-06-09T16:18:06.263Z,26.60
2018-06-09T16:21:10.569Z,26.60
2018-06-09T16:24:15.105Z,26.60
2018-06-09T16:27:19.504Z,26.80
2018-06-09T16:30:26.291Z,26.90
2018-06-09T16:33:33.070Z,26.90
2018-06-09T16:36:38.181Z,26.80
2018-06-09T16:39:42.532Z,26.70
2018-06-09T16:42:46.932Z,26.60
2018-06-09T16:45:52.832Z,26.50
2018-06-09T16:48:59.530Z,26.40
2018-06-09T16:52:06.815Z,26.20
2018-06-09T16:55:11.249Z,26.10
2018-06-09T16:58:15.713Z,26.10
2018-06-09T17:01:21.340Z,26.00
2018-06-09T17:04:27.024Z,25.90
2018-06-09T17:07:33.211Z,25.90
2018-06-09T17:10:37.778Z,25.90
2018-06-09T17:13:42.150Z,25.80
2018-06-09T17:16:46.595Z,25.70
2018-06-09T17:19:53.519Z,25.60
2018-06-09T17:23:04.221Z,25.50
2018-06-09T17:26:08.663Z,25.40
2018-06-09T17:29:13.225Z,25.30
2018-06-09T17:32:17.733Z,25.20
2018-06-09T17:35:24.013Z,25.10
2018-06-09T17:38:28.856Z,25.10
2018-06-09T17:41:36.746Z,25.10
2018-06-09T17:44:41.305Z,25.10
2018-06-09T17:47:46.057Z,25.10
2018-06-09T17:50:50.871Z,25.00
2018-06-09T17:53:58.463Z,24.90
2018-06-09T17:57:05.799Z,24.80
2018-06-09T18:00:13.288Z,24.80
2018-06-09T18:03:19.448Z,24.70
2018-06-09T18:06:24.301Z,24.60
2018-06-09T18:09:30.686Z,24.60
2018-06-09T18:12:35.214Z,24.50
2018-06-09T18:15:39.716Z,24.40
2018-06-09T18:18:44.127Z,24.30
2018-06-09T18:21:48.642Z,24.30
2018-06-09T18:24:54.501Z,24.20
2018-06-09T18:28:02.983Z,24.10
2018-06-09T18:31:07.547Z,24.00
2018-06-09T18:34:11.983Z,24.00
2018-06-09T18:37:16.416Z,24.00
2018-06-09T18:40:21.845Z,23.90
2018-06-09T18:43:27.970Z,23.80
2018-06-09T18:46:34.262Z,23.80
2018-06-09T18:49:39.094Z,23.80
2018-06-09T18:52:43.705Z,23.70
2018-06-09T18:55:48.198Z,23.60
2018-06-09T18:58:55.543Z,23.60
2018-06-09T19:02:02.224Z,23.50
2018-06-09T19:05:09.103Z,23.40
2018-06-09T19:08:13.415Z,23.40
2018-06-09T19:11:18.233Z,23.30
2018-06-09T19:14:25.640Z,23.30
2018-06-09T19:17:35.155Z,23.20
2018-06-09T19:20:39.639Z,23.10
2018-06-09T19:23:43.992Z,23.00
2018-06-09T19:26:49.758Z,23.00
2018-06-09T19:29:54.437Z,22.90
2018-06-09T19:33:05.527Z,22.80
2018-06-09T19:36:10.122Z,22.80
2018-06-09T19:39:14.620Z,22.80
2018-06-09T19:42:21.532Z,22.70
2018-06-09T19:45:31.249Z,22.70
2018-06-09T19:48:37.082Z,22.70
2018-06-09T19:51:41.628Z,22.80
2018-06-09T19:54:46.021Z,22.70
2018-06-09T19:57:50.565Z,22.80
2018-06-09T20:00:56.668Z,22.70
2018-06-09T20:04:01.149Z,22.70
2018-06-09T20:07:05.629Z,22.60
2018-06-09T20:10:10.270Z,22.50
2018-06-09T20:13:14.663Z,22.50
2018-06-09T20:16:24.992Z,22.50
2018-06-09T20:19:32.593Z,22.40
2018-06-09T20:22:37.197Z,22.30
2018-06-09T20:25:41.667Z,22.20
2018-06-09T20:28:46.169Z,22.20
2018-06-09T20:31:54.806Z,22.30
2018-06-09T20:38:04.166Z,22.10
2018-06-09T20:41:08.688Z,22.10
2018-06-09T20:44:13.299Z,22.10
2018-06-09T20:47:17.897Z,22.10
2018-06-09T20:50:53.186Z,22.00
2018-06-09T20:54:04.496Z,22.00
2018-06-09T20:57:12.364Z,22.00
2018-06-09T21:00:16.807Z,21.90
2018-06-09T21:03:22.327Z,21.90
2018-06-09T21:06:33.885Z,21.80
2018-06-09T21:09:38.807Z,21.90
2018-06-09T21:12:43.363Z,21.80
2018-06-09T21:15:48.158Z,21.80
2018-06-09T21:19:00.688Z,21.70
2018-06-09T21:22:05.937Z,21.60
2018-06-09T21:25:10.238Z,21.60
2018-06-09T21:28:20.001Z,21.60
2018-06-09T21:31:32.687Z,21.60
2018-06-09T21:34:55.136Z,21.50
2018-06-09T21:38:07.970Z,21.50
2018-06-09T21:41:18.462Z,21.40
2018-06-09T21:44:28.784Z,21.40
2018-06-09T21:47:34.371Z,21.30
2018-06-09T21:50:40.727Z,21.30
2018-06-09T21:53:45.103Z,21.30
2018-06-09T21:56:51.468Z,21.20
2018-06-09T21:59:58.014Z,21.20
2018-06-09T22:03:05.103Z,21.20
2018-06-09T22:06:09.688Z,21.10
2018-06-09T22:09:14.000Z,21.00
2018-06-09T22:12:20.946Z,21.00
2018-06-09T22:15:26.600Z,20.90
2018-06-09T22:18:34.485Z,20.80
2018-06-09T22:21:39.972Z,20.70
2018-06-09T22:24:44.422Z,20.70
2018-06-09T22:27:52.957Z,20.60
2018-06-09T22:31:00.847Z,20.50
2018-06-09T22:34:07.914Z,20.60
2018-06-09T22:37:12.345Z,20.60
2018-06-09T22:40:16.655Z,20.50
2018-06-09T22:43:22.036Z,20.40
2018-06-09T22:46:26.679Z,20.50
2018-06-09T22:49:33.279Z,20.60
2018-06-09T22:52:40.542Z,20.50
2018-06-09T22:55:44.880Z,20.40
2018-06-09T22:58:54.299Z,20.40
2018-06-09T23:05:09.846Z,20.30
2018-06-09T23:08:14.181Z,20.30
2018-06-09T23:11:19.602Z,20.40
2018-06-09T23:14:29.054Z,20.30
2018-06-09T23:17:35.864Z,20.30
2018-06-09T23:20:40.264Z,20.40
2018-06-09T23:23:44.656Z,20.30
2018-06-09T23:26:50.501Z,20.30
2018-06-09T23:29:55.845Z,20.30
2018-06-09T23:33:00.189Z,20.20
2018-06-09T23:36:09.192Z,20.20
2018-06-09T23:39:13.443Z,20.10
2018-06-09T23:42:17.847Z,20.00
2018-06-09T23:45:22.280Z,20.00
2018-06-09T23:48:29.788Z,20.10
2018-06-09T23:51:40.885Z,20.00
2018-06-09T23:54:45.242Z,20.00
2018-06-09T23:57:52.014Z,19.90
